Time,TemperatureF,DewpointF,PressureIn,WindDirection,WindDirectionDegrees,WindSpeedMPH,WindSpeedGustMPH,Humidity,HourlyPrecipIn,Conditions,Clouds,dailyrainin,SoftwareType,DateUTC
2013-07-22 00:14:00,75.5,73.0,30.03,ENE,65,0.0,-999.0,92,-99.99,,,0.00,weatherlink.com 1.10,2013-07-22 05:14:00,
2013-07-22 00:29:00,75.4,73.0,30.03,ENE,65,0.0,-999.0,93,-99.99,,,0.00,weatherlink.com 1.10,2013-07-22 05:29:00,
2013-07-22 00:44:00,75.2,73.0,30.03,ENE,65,0.0,-999.0,93,-99.99,,,0.00,weatherlink.com 1.10,2013-07-22 05:44:00,
2013-07-22 00:59:00,75.1,73.0,30.02,ENE,65,0.0,-999.0,93,-99.99,,,0.00,weatherlink.com 1.10,2013-07-22 05:59:00,
2013-07-22 01:14:00,75.0,73.0,30.03,ENE,65,0.0,-999.0,94,-99.99,,,0.00,weatherlink.com 1.10,2013-07-22 06:14:00,
2013-07-22 01:29:00,74.9,73.0,30.02,ENE,65,0.0,-999.0,94,-99.99,,,0.00,weatherlink.com 1.10,2013-07-22 06:29:00,
2013-07-22 01:44:00,74.7,73.0,30.02,ENE,65,0.0,-999.0,94,-99.99,,,0.00,weatherlink.com 1.10,2013-07-22 06:44:00,
2013-07-22 01:59:00,74.7,73.0,30.02,ENE,65,0.0,-999.0,94,-99.99,,,0.00,weatherlink.com 1.10,2013-07-22 06:59:00,
2013-07-22 02:14:00,74.8,73.0,30.01,ENE,65,0.0,-999.0,94,-99.99,,,0.00,weatherlink.com 1.10,2013-07-22 07:14:00,
2013-07-22 02:29:00,74.8,73.0,30.00,ENE,65,0.0,-999.0,94,-99.99,,,0.00,weatherlink.com 1.10,2013-07-22 07:29:00,
2013-07-22 02:44:00,75.0,74.0,30.00,ENE,65,0.0,-999.0,95,-99.99,,,0.00,weatherlink.com 1.10,2013-07-22 07:44:00,
2013-07-22 02:59:00,75.1,74.0,30.01,ENE,65,0.0,-999.0,95,-99.99,,,0.00,weatherlink.com 1.10,2013-07-22 07:59:00,
2013-07-22 03:14:00,75.1,74.0,30.01,ENE,65,0.0,-999.0,95,-99.99,,,0.00,weatherlink.com 1.10,2013-07-22 08:14:00,
2013-07-22 03:29:00,75.3,74.0,30.01,ENE,65,0.0,-999.0,95,-99.99,,,0.00,weatherlink.com 1.10,2013-07-22 08:29:00,
2013-07-22 03:44:00,75.4,74.0,30.01,ENE,65,0.0,-999.0,95,-99.99,,,0.00,weatherlink.com 1.10,2013-07-22 08:44:00,
2013-07-22 03:59:00,75.6,74.0,30.01,ENE,65,0.0,-999.0,95,-99.99,,,0.00,weatherlink.com 1.10,2013-07-22 08:59:00,
2013-07-22 04:15:00,75.8,75.0,30.01,ENE,65,0.0,-999.0,96,-99.99,,,0.00,weatherlink.com 1.10,2013-07-22 09:15:00,
2013-07-22 04:30:00,75.9,75.0,30.00,ENE,65,0.0,-999.0,96,-99.99,,,0.00,weatherlink.com 1.10,2013-07-22 09:30:00,
2013-07-22 04:45:00,76.0,75.0,30.01,ENE,65,0.0,-999.0,96,-99.99,,,0.00,weatherlink.com 1.10,2013-07-22 09:45:00,
2013-07-22 05:00:00,76.1,75.0,30.01,ENE,65,0.0,-999.0,96,-99.99,,,0.00,weatherlink.com 1.10,2013-07-22 10:00:00,
2013-07-22 05:15:00,76.3,75.0,30.02,ENE,65,0.0,-999.0,96,-99.99,,,0.00,weatherlink.com 1.10,2013-07-22 10:15:00,
2013-07-22 05:30:00,76.4,75.0,30.02,ENE,65,0.0,-999.0,96,-99.99,,,0.00,weatherlink.com 1.10,2013-07-22 10:30:00,
2013-07-22 05:45:00,76.4,75.0,30.03,ENE,65,0.0,-999.0,96,-99.99,,,0.00,weatherlink.com 1.10,2013-07-22 10:45:00,
2013-07-22 06:00:00,76.2,75.0,30.03,ENE,65,0.0,-999.0,96,-99.99,,,0.00,weatherlink.com 1.10,2013-07-22 11:00:00,
2013-07-22 06:15:00,76.2,75.0,30.03,ENE,65,0.0,-999.0,96,-99.99,,,0.00,weatherlink.com 1.10,2013-07-22 11:15:00,
2013-07-22 06:30:00,76.3,75.0,30.03,ENE,65,0.0,-999.0,96,-99.99,,,0.00,weatherlink.com 1.10,2013-07-22 11:30:00,
2013-07-22 06:45:00,76.2,75.0,30.03,ENE,65,0.0,-999.0,96,-99.99,,,0.00,weatherlink.com 1.10,2013-07-22 11:45:00,
2013-07-22 07:00:00,76.2,75.0,30.03,ENE,65,0.0,-999.0,96,-99.99,,,0.00,weatherlink.com 1.10,2013-07-22 12:00:00,
2013-07-22 07:15:00,76.4,75.0,30.04,ENE,65,0.0,-999.0,96,-99.99,,,0.00,weatherlink.com 1.10,2013-07-22 12:15:00,
2013-07-22 07:30:00,77.3,76.0,30.04,ENE,65,0.0,-999.0,96,-99.99,,,0.00,weatherlink.com 1.10,2013-07-22 12:30:00,
2013-07-22 07:45:00,77.9,77.0,30.04,ENE,65,0.0,-999.0,97,-99.99,,,0.00,weatherlink.com 1.10,2013-07-22 12:45:00,
2013-07-22 08:00:00,79.2,78.0,30.05,ENE,65,0.0,-999.0,97,-99.99,,,0.00,weatherlink.com 1.10,2013-07-22 13:00:00,
2013-07-22 08:15:00,80.4,80.0,30.05,SE,140,1.0,-999.0,97,-99.99,,,0.00,weatherlink.com 1.10,2013-07-22 13:15:00,
2013-07-22 08:30:00,81.1,80.0,30.06,ESE,117,1.0,-999.0,96,-99.99,,,0.00,weatherlink.com 1.10,2013-07-22 13:30:00,
2013-07-22 08:45:00,82.4,81.0,30.06,SSW,213,3.0,-999.0,94,-99.99,,,0.00,weatherlink.com 1.10,2013-07-22 13:45:00,
2013-07-22 09:00:00,84.3,81.0,30.05,SSW,207,0.0,-999.0,90,-99.99,,,0.00,weatherlink.com 1.10,2013-07-22 14:00:00,
2013-07-22 09:15:00,85.7,81.0,30.06,SW,233,0.0,-999.0,86,-99.99,,,0.00,weatherlink.com 1.10,2013-07-22 14:15:00,
2013-07-22 09:30:00,86.5,81.0,30.05,WSW,244,2.0,-999.0,84,-99.99,,,0.00,weatherlink.com 1.10,2013-07-22 14:30:00,
2013-07-22 09:45:00,87.2,82.0,30.05,WNW,296,0.0,-999.0,84,-99.99,,,0.00,weatherlink.com 1.10,2013-07-22 14:45:00,
2013-07-22 10:00:00,88.5,82.0,30.05,West,263,0.0,-999.0,81,-99.99,,,0.00,weatherlink.com 1.10,2013-07-22 15:00:00,
2013-07-22 10:15:00,89.6,81.0,30.06,WNW,285,3.0,-999.0,75,-99.99,,,0.00,weatherlink.com 1.10,2013-07-22 15:15:00,
2013-07-22 10:30:00,89.6,82.0,30.06,SW,230,0.0,-999.0,77,-99.99,,,0.00,weatherlink.com 1.10,2013-07-22 15:30:00,
2013-07-22 10:45:00,89.7,81.0,30.06,WSW,239,1.0,-999.0,75,-99.99,,,0.00,weatherlink.com 1.10,2013-07-22 15:45:00,
2013-07-22 11:00:00,89.8,81.0,30.06,SW,236,2.0,-999.0,74,-99.99,,,0.00,weatherlink.com 1.10,2013-07-22 16:00:00,
2013-07-22 11:15:00,90.2,80.0,30.05,South,177,4.0,-999.0,71,-99.99,,,0.00,weatherlink.com 1.10,2013-07-22 16:15:00,
2013-07-22 11:30:00,91.6,81.0,30.05,SSW,192,1.0,-999.0,71,-99.99,,,0.00,weatherlink.com 1.10,2013-07-22 16:30:00,
2013-07-22 11:45:00,92.7,81.0,30.05,WNW,301,0.0,-999.0,68,-99.99,,,0.00,weatherlink.com 1.10,2013-07-22 16:45:00,
2013-07-22 12:01:00,93.1,81.0,30.04,West,263,4.0,-999.0,68,-99.99,,,0.00,weatherlink.com 1.10,2013-07-22 17:01:00,
2013-07-22 12:16:00,93.3,81.0,30.04,WSW,240,1.0,-999.0,68,-99.99,,,0.00,weatherlink.com 1.10,2013-07-22 17:16:00,
2013-07-22 12:31:00,93.7,81.0,30.04,SSW,196,0.0,-999.0,66,-99.99,,,0.00,weatherlink.com 1.10,2013-07-22 17:31:00,
2013-07-22 12:46:00,89.6,75.0,30.05,South,170,2.0,-999.0,62,-99.99,,,0.00,weatherlink.com 1.10,2013-07-22 17:46:00,
2013-07-22 13:01:00,81.5,73.0,30.04,SSE,149,0.0,-999.0,76,-99.99,,,0.25,weatherlink.com 1.10,2013-07-22 18:01:00,
2013-07-22 14:01:00,80.3,77.0,30.03,ESE,113,0.0,-999.0,90,-99.99,,,0.26,weatherlink.com 1.10,2013-07-22 19:01:00,
2013-07-22 14:31:00,89.6,82.0,30.01,SE,135,1.0,-999.0,77,-99.99,,,0.26,weatherlink.com 1.10,2013-07-22 19:31:00,
2013-07-22 15:01:00,88.4,81.0,30.02,South,169,0.0,-999.0,79,-99.99,,,0.26,weatherlink.com 1.10,2013-07-22 20:01:00,
2013-07-22 15:17:00,87.2,81.0,30.02,WNW,293,0.0,-999.0,81,-99.99,,,0.26,weatherlink.com 1.10,2013-07-22 20:17:00,
2013-07-22 15:31:00,85.6,76.0,30.02,ENE,75,2.0,-999.0,74,-99.99,,,0.26,weatherlink.com 1.10,2013-07-22 20:31:00,
2013-07-22 15:46:00,83.1,75.0,30.01,ENE,65,0.0,-999.0,77,-99.99,,,0.26,weatherlink.com 1.10,2013-07-22 20:46:00,
2013-07-22 16:01:00,82.5,76.0,30.00,ENE,65,0.0,-999.0,81,-99.99,,,0.26,weatherlink.com 1.10,2013-07-22 21:01:00,
2013-07-22 16:16:00,82.1,77.0,30.01,ENE,65,0.0,-999.0,83,-99.99,,,0.26,weatherlink.com 1.10,2013-07-22 21:16:00,
2013-07-22 16:31:00,81.5,77.0,30.02,ENE,65,0.0,-999.0,85,-99.99,,,0.26,weatherlink.com 1.10,2013-07-22 21:31:00,
2013-07-22 16:46:00,81.1,76.0,30.02,ENE,65,0.0,-999.0,85,-99.99,,,0.26,weatherlink.com 1.10,2013-07-22 21:46:00,
2013-07-22 17:01:00,80.7,76.0,30.00,ENE,65,0.0,-999.0,86,-99.99,,,0.26,weatherlink.com 1.10,2013-07-22 22:01:00,
2013-07-22 17:16:00,80.7,77.0,29.99,ENE,65,0.0,-999.0,87,-99.99,,,0.26,weatherlink.com 1.10,2013-07-22 22:16:00,
2013-07-22 17:31:00,80.7,77.0,30.00,ENE,65,0.0,-999.0,89,-99.99,,,0.26,weatherlink.com 1.10,2013-07-22 22:31:00,
2013-07-22 17:46:00,80.5,77.0,29.99,ENE,65,0.0,-999.0,89,-99.99,,,0.26,weatherlink.com 1.10,2013-07-22 22:46:00,
2013-07-22 18:01:00,80.6,77.0,30.00,ENE,65,0.0,-999.0,89,-99.99,,,0.26,weatherlink.com 1.10,2013-07-22 23:01:00,
2013-07-22 18:16:00,80.6,77.0,30.00,ENE,65,0.0,-999.0,87,-99.99,,,0.26,weatherlink.com 1.10,2013-07-22 23:16:00,
2013-07-22 18:31:00,80.8,77.0,30.00,East,84,0.0,-999.0,88,-99.99,,,0.26,weatherlink.com 1.10,2013-07-22 23:31:00,
2013-07-22 18:46:00,81.3,78.0,30.00,East,84,0.0,-999.0,88,-99.99,,,0.26,weatherlink.com 1.10,2013-07-22 23:46:00,
2013-07-22 19:01:00,82.0,78.0,30.00,East,84,0.0,-999.0,87,-99.99,,,0.26,weatherlink.com 1.10,2013-07-23 00:01:00,
2013-07-22 19:16:00,82.5,78.0,30.00,East,84,0.0,-999.0,87,-99.99,,,0.26,weatherlink.com 1.10,2013-07-23 00:16:00,
2013-07-22 19:31:00,82.8,79.0,29.99,East,84,0.0,-999.0,87,-99.99,,,0.26,weatherlink.com 1.10,2013-07-23 00:31:00,
2013-07-22 19:46:00,83.2,79.0,29.99,East,84,0.0,-999.0,88,-99.99,,,0.26,weatherlink.com 1.10,2013-07-23 00:46:00,
2013-07-22 20:01:00,83.2,79.0,29.99,East,84,0.0,-999.0,88,-99.99,,,0.26,weatherlink.com 1.10,2013-07-23 01:01:00,
2013-07-22 20:16:00,83.0,80.0,29.99,South,181,0.0,-999.0,89,-99.99,,,0.26,weatherlink.com 1.10,2013-07-23 01:16:00,
2013-07-22 20:31:00,82.7,79.0,29.99,South,181,0.0,-999.0,89,-99.99,,,0.26,weatherlink.com 1.10,2013-07-23 01:31:00,
2013-07-22 20:46:00,82.3,79.0,30.00,South,181,0.0,-999.0,89,-99.99,,,0.26,weatherlink.com 1.10,2013-07-23 01:46:00,
2013-07-22 21:01:00,81.8,78.0,30.00,South,181,0.0,-999.0,89,-99.99,,,0.26,weatherlink.com 1.10,2013-07-23 02:01:00,
2013-07-22 21:16:00,81.4,78.0,30.01,South,181,0.0,-999.0,90,-99.99,,,0.26,weatherlink.com 1.10,2013-07-23 02:16:00,
2013-07-22 21:31:00,81.1,78.0,30.01,South,181,0.0,-999.0,90,-99.99,,,0.26,weatherlink.com 1.10,2013-07-23 02:31:00,
2013-07-22 21:46:00,80.8,78.0,30.02,South,185,0.0,-999.0,91,-99.99,,,0.26,weatherlink.com 1.10,2013-07-23 02:46:00,
2013-07-22 22:01:00,80.5,78.0,30.02,South,185,0.0,-999.0,91,-99.99,,,0.26,weatherlink.com 1.10,2013-07-23 03:01:00,
2013-07-22 22:16:00,80.3,78.0,30.02,South,185,0.0,-999.0,91,-99.99,,,0.26,weatherlink.com 1.10,2013-07-23 03:16:00,
2013-07-22 22:31:00,80.1,78.0,30.02,South,185,0.0,-999.0,92,-99.99,,,0.26,weatherlink.com 1.10,2013-07-23 03:31:00,
2013-07-22 22:46:00,79.9,77.0,30.02,South,185,0.0,-999.0,92,-99.99,,,0.26,weatherlink.com 1.10,2013-07-23 03:46:00,
2013-07-22 23:01:00,79.8,77.0,30.03,South,185,0.0,-999.0,92,-99.99,,,0.26,weatherlink.com 1.10,2013-07-23 04:01:00,
2013-07-22 23:16:00,79.7,78.0,30.03,South,178,0.0,-999.0,93,-99.99,,,0.26,weatherlink.com 1.10,2013-07-23 04:16:00,
2013-07-22 23:31:00,79.5,77.0,30.03,South,178,0.0,-999.0,93,-99.99,,,0.26,weatherlink.com 1.10,2013-07-23 04:31:00,
2013-07-22 23:46:00,79.4,77.0,30.03,South,178,0.0,-999.0,93,-99.99,,,0.26,weatherlink.com 1.10,2013-07-23 04:46:00,